sensor_id;sensor_type;location;lat;lon;timestamp;P1;durP1;ratioP1;P2;durP2;ratioP2
13208;SDS011;6669;42.678;23.332;2023-06-22T00:00:54;6.57;;;5.93;;
13208;SDS011;6669;42.678;23.332;2023-06-22T00:03:22;6.60;;;5.78;;
13208;SDS011;6669;42.678;23.332;2023-06-22T00:05:51;6.22;;;5.65;;
13208;SDS011;6669;42.678;23.332;2023-06-22T00:08:20;6.95;;;6.25;;
13208;SDS011;6669;42.678;23.332;2023-06-22T00:10:49;7.10;;;5.93;;
13208;SDS011;6669;42.678;23.332;2023-06-22T00:13:18;6.88;;;6.18;;
13208;SDS011;6669;42.678;23.332;2023-06-22T00:15:46;7.13;;;5.72;;
13208;SDS011;6669;42.678;23.332;2023-06-22T00:18:14;6.53;;;5.93;;
13208;SDS011;6669;42.678;23.332;2023-06-22T00:20:42;7.00;;;6.20;;
13208;SDS011;6669;42.678;23.332;2023-06-22T00:23:12;5.95;;;5.35;;
13208;SDS011;6669;42.678;23.332;2023-06-22T00:25:42;7.03;;;6.35;;
13208;SDS011;6669;42.678;23.332;2023-06-22T00:28:11;6.22;;;5.63;;
13208;SDS011;6669;42.678;23.332;2023-06-22T00:30:39;7.40;;;6.45;;
13208;SDS011;6669;42.678;23.332;2023-06-22T00:33:08;7.25;;;6.22;;
13208;SDS011;6669;42.678;23.332;2023-06-22T00:35:36;6.82;;;6.13;;
13208;SDS011;6669;42.678;23.332;2023-06-22T00:38:04;6.70;;;6.00;;
13208;SDS011;6669;42.678;23.332;2023-06-22T00:40:32;6.07;;;5.47;;
13208;SDS011;6669;42.678;23.332;2023-06-22T00:43:01;6.93;;;6.22;;
13208;SDS011;6669;42.678;23.332;2023-06-22T00:45:31;7.25;;;6.55;;
13208;SDS011;6669;42.678;23.332;2023-06-22T00:47:59;7.22;;;6.03;;
13208;SDS011;6669;42.678;23.332;2023-06-22T00:50:28;8.20;;;6.70;;
13208;SDS011;6669;42.678;23.332;2023-06-22T00:53:00;7.07;;;5.65;;
13208;SDS011;6669;42.678;23.332;2023-06-22T00:55:35;6.95;;;5.85;;
13208;SDS011;6669;42.678;23.332;2023-06-22T00:58:06;9.48;;;6.95;;
13208;SDS011;6669;42.678;23.332;2023-06-22T01:00:38;8.52;;;6.30;;
13208;SDS011;6669;42.678;23.332;2023-06-22T01:03:08;7.65;;;6.72;;
13208;SDS011;6669;42.678;23.332;2023-06-22T01:05:37;9.57;;;6.68;;
13208;SDS011;6669;42.678;23.332;2023-06-22T01:08:12;7.95;;;6.88;;
13208;SDS011;6669;42.678;23.332;2023-06-22T01:10:51;7.45;;;6.38;;
13208;SDS011;6669;42.678;23.332;2023-06-22T01:13:26;8.40;;;7.25;;
13208;SDS011;6669;42.678;23.332;2023-06-22T01:16:02;8.30;;;6.53;;
13208;SDS011;6669;42.678;23.332;2023-06-22T01:18:33;7.53;;;6.57;;
13208;SDS011;6669;42.678;23.332;2023-06-22T01:21:04;6.70;;;6.05;;
13208;SDS011;6669;42.678;23.332;2023-06-22T01:23:42;7.45;;;6.75;;
13208;SDS011;6669;42.678;23.332;2023-06-22T01:26:21;7.22;;;6.10;;
13208;SDS011;6669;42.678;23.332;2023-06-22T01:28:57;8.52;;;6.30;;
13208;SDS011;6669;42.678;23.332;2023-06-22T01:31:27;7.40;;;6.60;;
13208;SDS011;6669;42.678;23.332;2023-06-22T01:33:58;6.85;;;6.10;;
13208;SDS011;6669;42.678;23.332;2023-06-22T01:36:28;7.68;;;6.28;;
13208;SDS011;6669;42.678;23.332;2023-06-22T01:38:57;7.88;;;6.25;;
13208;SDS011;6669;42.678;23.332;2023-06-22T01:41:27;7.00;;;5.85;;
13208;SDS011;6669;42.678;23.332;2023-06-22T01:43:58;6.43;;;5.82;;
13208;SDS011;6669;42.678;23.332;2023-06-22T01:46:27;6.28;;;5.45;;
13208;SDS011;6669;42.678;23.332;2023-06-22T01:48:56;6.53;;;5.78;;
13208;SDS011;6669;42.678;23.332;2023-06-22T01:51:25;6.35;;;5.40;;
13208;SDS011;6669;42.678;23.332;2023-06-22T01:53:53;5.43;;;4.93;;
13208;SDS011;6669;42.678;23.332;2023-06-22T01:56:23;5.75;;;5.22;;
13208;SDS011;6669;42.678;23.332;2023-06-22T01:58:54;5.53;;;5.03;;
13208;SDS011;6669;42.678;23.332;2023-06-22T02:01:30;5.60;;;5.10;;
13208;SDS011;6669;42.678;23.332;2023-06-22T02:04:02;6.55;;;5.90;;
13208;SDS011;6669;42.678;23.332;2023-06-22T02:06:38;6.93;;;6.03;;
13208;SDS011;6669;42.678;23.332;2023-06-22T02:09:11;5.75;;;5.25;;
13208;SDS011;6669;42.678;23.332;2023-06-22T02:11:42;7.25;;;5.20;;
13208;SDS011;6669;42.678;23.332;2023-06-22T02:14:13;6.05;;;5.45;;
13208;SDS011;6669;42.678;23.332;2023-06-22T02:16:46;6.82;;;5.22;;
13208;SDS011;6669;42.678;23.332;2023-06-22T02:19:14;6.50;;;5.82;;
13208;SDS011;6669;42.678;23.332;2023-06-22T02:21:44;6.13;;;5.55;;
13208;SDS011;6669;42.678;23.332;2023-06-22T02:24:12;6.68;;;5.60;;
13208;SDS011;6669;42.678;23.332;2023-06-22T02:26:41;5.93;;;5.10;;
13208;SDS011;6669;42.678;23.332;2023-06-22T02:29:11;6.72;;;5.88;;
13208;SDS011;6669;42.678;23.332;2023-06-22T02:31:40;5.95;;;5.35;;
13208;SDS011;6669;42.678;23.332;2023-06-22T02:34:09;6.15;;;5.53;;
13208;SDS011;6669;42.678;23.332;2023-06-22T02:36:40;6.15;;;5.55;;
13208;SDS011;6669;42.678;23.332;2023-06-22T02:39:18;7.63;;;5.68;;
13208;SDS011;6669;42.678;23.332;2023-06-22T02:41:48;8.82;;;6.35;;
13208;SDS011;6669;42.678;23.332;2023-06-22T02:44:16;6.95;;;6.07;;
13208;SDS011;6669;42.678;23.332;2023-06-22T02:46:45;6.43;;;5.70;;
13208;SDS011;6669;42.678;23.332;2023-06-22T02:49:14;7.18;;;5.63;;
13208;SDS011;6669;42.678;23.332;2023-06-22T02:51:44;6.20;;;5.60;;
13208;SDS011;6669;42.678;23.332;2023-06-22T02:54:13;6.35;;;5.75;;
13208;SDS011;6669;42.678;23.332;2023-06-22T02:56:42;9.25;;;6.20;;
13208;SDS011;6669;42.678;23.332;2023-06-22T02:59:11;5.97;;;5.40;;
13208;SDS011;6669;42.678;23.332;2023-06-22T03:01:39;6.40;;;5.80;;
13208;SDS011;6669;42.678;23.332;2023-06-22T03:04:07;6.10;;;5.50;;
13208;SDS011;6669;42.678;23.332;2023-06-22T03:06:37;7.93;;;5.93;;
13208;SDS011;6669;42.678;23.332;2023-06-22T03:09:07;6.40;;;5.80;;
13208;SDS011;6669;42.678;23.332;2023-06-22T03:11:35;6.55;;;5.82;;
13208;SDS011;6669;42.678;23.332;2023-06-22T03:14:03;5.95;;;5.15;;
13208;SDS011;6669;42.678;23.332;2023-06-22T03:16:31;7.97;;;5.93;;
13208;SDS011;6669;42.678;23.332;2023-06-22T03:18:59;8.20;;;5.88;;
13208;SDS011;6669;42.678;23.332;2023-06-22T03:21:27;6.65;;;5.93;;
13208;SDS011;6669;42.678;23.332;2023-06-22T03:23:57;6.80;;;6.03;;
13208;SDS011;6669;42.678;23.332;2023-06-22T03:26:25;6.38;;;5.78;;
13208;SDS011;6669;42.678;23.332;2023-06-22T03:28:54;7.28;;;6.57;;
13208;SDS011;6669;42.678;23.332;2023-06-22T03:31:22;6.38;;;5.60;;
13208;SDS011;6669;42.678;23.332;2023-06-22T03:33:50;6.57;;;5.68;;
13208;SDS011;6669;42.678;23.332;2023-06-22T03:36:20;6.53;;;5.82;;
13208;SDS011;6669;42.678;23.332;2023-06-22T03:38:49;6.50;;;5.90;;
13208;SDS011;6669;42.678;23.332;2023-06-22T03:41:19;7.20;;;5.70;;
13208;SDS011;6669;42.678;23.332;2023-06-22T03:43:47;8.35;;;6.47;;
13208;SDS011;6669;42.678;23.332;2023-06-22T03:46:15;8.27;;;6.38;;
13208;SDS011;6669;42.678;23.332;2023-06-22T03:48:43;6.70;;;6.00;;
13208;SDS011;6669;42.678;23.332;2023-06-22T03:51:11;6.68;;;5.97;;
13208;SDS011;6669;42.678;23.332;2023-06-22T03:53:39;7.40;;;6.60;;
13208;SDS011;6669;42.678;23.332;2023-06-22T03:56:07;6.53;;;5.82;;
13208;SDS011;6669;42.678;23.332;2023-06-22T03:58:37;8.20;;;6.22;;
13208;SDS011;6669;42.678;23.332;2023-06-22T04:01:09;6.53;;;5.82;;
13208;SDS011;6669;42.678;23.332;2023-06-22T04:03:38;6.38;;;5.78;;
13208;SDS011;6669;42.678;23.332;2023-06-22T04:06:06;7.97;;;5.95;;
13208;SDS011;6669;42.678;23.332;2023-06-22T04:08:34;7.10;;;6.40;;
13208;SDS011;6669;42.678;23.332;2023-06-22T04:11:02;6.38;;;5.75;;
13208;SDS011;6669;42.678;23.332;2023-06-22T04:13:31;6.70;;;6.00;;
13208;SDS011;6669;42.678;23.332;2023-06-22T04:16:00;7.57;;;6.35;;
13208;SDS011;6669;42.678;23.332;2023-06-22T04:18:28;7.57;;;6.50;;
13208;SDS011;6669;42.678;23.332;2023-06-22T04:20:56;7.13;;;6.43;;
13208;SDS011;6669;42.678;23.332;2023-06-22T04:23:25;6.55;;;5.82;;
13208;SDS011;6669;42.678;23.332;2023-06-22T04:25:53;7.45;;;6.18;;
13208;SDS011;6669;42.678;23.332;2023-06-22T04:28:22;6.28;;;5.68;;
13208;SDS011;6669;42.678;23.332;2023-06-22T04:30:53;5.97;;;5.28;;
13208;SDS011;6669;42.678;23.332;2023-06-22T04:33:30;6.82;;;6.22;;
13208;SDS011;6669;42.678;23.332;2023-06-22T04:35:58;7.22;;;6.30;;
13208;SDS011;6669;42.678;23.332;2023-06-22T04:38:27;8.75;;;6.70;;
13208;SDS011;6669;42.678;23.332;2023-06-22T04:40:59;8.75;;;6.93;;
13208;SDS011;6669;42.678;23.332;2023-06-22T04:43:28;8.20;;;6.75;;
13208;SDS011;6669;42.678;23.332;2023-06-22T04:45:57;7.05;;;6.35;;
13208;SDS011;6669;42.678;23.332;2023-06-22T04:48:31;6.93;;;6.15;;
13208;SDS011;6669;42.678;23.332;2023-06-22T04:51:00;7.45;;;6.70;;
13208;SDS011;6669;42.678;23.332;2023-06-22T04:53:30;8.20;;;6.97;;
13208;SDS011;6669;42.678;23.332;2023-06-22T04:55:58;7.70;;;6.75;;
13208;SDS011;6669;42.678;23.332;2023-06-22T04:58:26;8.80;;;7.82;;
13208;SDS011;6669;42.678;23.332;2023-06-22T05:00:55;10.45;;;6.65;;
13208;SDS011;6669;42.678;23.332;2023-06-22T05:03:24;9.85;;;7.40;;
13208;SDS011;6669;42.678;23.332;2023-06-22T05:05:55;8.23;;;7.22;;
13208;SDS011;6669;42.678;23.332;2023-06-22T05:08:23;9.95;;;7.13;;
13208;SDS011;6669;42.678;23.332;2023-06-22T05:10:55;8.38;;;7.45;;
13208;SDS011;6669;42.678;23.332;2023-06-22T05:13:31;8.02;;;6.88;;
13208;SDS011;6669;42.678;23.332;2023-06-22T05:15:59;8.60;;;7.43;;
13208;SDS011;6669;42.678;23.332;2023-06-22T05:18:29;8.32;;;7.50;;
13208;SDS011;6669;42.678;23.332;2023-06-22T05:21:00;7.43;;;6.63;;
13208;SDS011;6669;42.678;23.332;2023-06-22T05:23:28;7.32;;;6.63;;
13208;SDS011;6669;42.678;23.332;2023-06-22T05:25:56;7.70;;;6.90;;
13208;SDS011;6669;42.678;23.332;2023-06-22T05:28:25;7.55;;;6.75;;
13208;SDS011;6669;42.678;23.332;2023-06-22T05:30:53;9.20;;;7.03;;
13208;SDS011;6669;42.678;23.332;2023-06-22T05:33:21;7.32;;;6.57;;
13208;SDS011;6669;42.678;23.332;2023-06-22T05:35:50;8.23;;;7.00;;
13208;SDS011;6669;42.678;23.332;2023-06-22T05:38:19;7.82;;;7.00;;
13208;SDS011;6669;42.678;23.332;2023-06-22T05:40:47;9.25;;;6.60;;
13208;SDS011;6669;42.678;23.332;2023-06-22T05:43:15;7.95;;;7.15;;
13208;SDS011;6669;42.678;23.332;2023-06-22T05:45:43;10.30;;;7.15;;
13208;SDS011;6669;42.678;23.332;2023-06-22T05:48:11;7.47;;;6.70;;
13208;SDS011;6669;42.678;23.332;2023-06-22T05:50:39;7.82;;;7.03;;
13208;SDS011;6669;42.678;23.332;2023-06-22T05:53:07;7.38;;;6.65;;
13208;SDS011;6669;42.678;23.332;2023-06-22T05:55:36;8.30;;;7.10;;
13208;SDS011;6669;42.678;23.332;2023-06-22T05:58:04;7.80;;;6.60;;
13208;SDS011;6669;42.678;23.332;2023-06-22T06:00:32;7.60;;;6.47;;
13208;SDS011;6669;42.678;23.332;2023-06-22T06:03:00;9.35;;;6.85;;
13208;SDS011;6669;42.678;23.332;2023-06-22T06:05:30;8.00;;;7.18;;
13208;SDS011;6669;42.678;23.332;2023-06-22T06:07:58;8.43;;;7.63;;
13208;SDS011;6669;42.678;23.332;2023-06-22T06:10:29;7.53;;;6.35;;
13208;SDS011;6669;42.678;23.332;2023-06-22T06:13:00;8.65;;;7.13;;
13208;SDS011;6669;42.678;23.332;2023-06-22T06:15:31;9.02;;;7.40;;
13208;SDS011;6669;42.678;23.332;2023-06-22T06:17:59;9.23;;;7.75;;
13208;SDS011;6669;42.678;23.332;2023-06-22T06:20:28;7.97;;;7.18;;
13208;SDS011;6669;42.678;23.332;2023-06-22T06:22:58;9.52;;;7.63;;
13208;SDS011;6669;42.678;23.332;2023-06-22T06:25:26;8.18;;;6.90;;
13208;SDS011;6669;42.678;23.332;2023-06-22T06:27:54;7.68;;;6.88;;
13208;SDS011;6669;42.678;23.332;2023-06-22T06:30:23;7.57;;;6.68;;
13208;SDS011;6669;42.678;23.332;2023-06-22T06:32:52;8.65;;;7.10;;
13208;SDS011;6669;42.678;23.332;2023-06-22T06:35:20;7.85;;;6.88;;
13208;SDS011;6669;42.678;23.332;2023-06-22T06:37:49;8.50;;;6.30;;
13208;SDS011;6669;42.678;23.332;2023-06-22T06:40:17;7.20;;;6.07;;
13208;SDS011;6669;42.678;23.332;2023-06-22T06:42:46;7.50;;;6.72;;
13208;SDS011;6669;42.678;23.332;2023-06-22T06:45:17;6.68;;;6.05;;
13208;SDS011;6669;42.678;23.332;2023-06-22T06:47:47;7.38;;;6.57;;
13208;SDS011;6669;42.678;23.332;2023-06-22T06:50:16;9.00;;;6.60;;
13208;SDS011;6669;42.678;23.332;2023-06-22T06:52:45;7.57;;;6.70;;
13208;SDS011;6669;42.678;23.332;2023-06-22T06:55:13;7.07;;;6.35;;
13208;SDS011;6669;42.678;23.332;2023-06-22T06:57:41;6.45;;;5.78;;
13208;SDS011;6669;42.678;23.332;2023-06-22T07:00:11;6.50;;;5.72;;
13208;SDS011;6669;42.678;23.332;2023-06-22T07:02:41;6.97;;;6.30;;
13208;SDS011;6669;42.678;23.332;2023-06-22T07:05:11;6.88;;;5.57;;
13208;SDS011;6669;42.678;23.332;2023-06-22T07:07:40;7.50;;;6.47;;
13208;SDS011;6669;42.678;23.332;2023-06-22T07:10:10;6.25;;;5.65;;
13208;SDS011;6669;42.678;23.332;2023-06-22T07:12:38;6.03;;;5.43;;
13208;SDS011;6669;42.678;23.332;2023-06-22T07:15:07;6.97;;;6.25;;
13208;SDS011;6669;42.678;23.332;2023-06-22T07:17:38;6.57;;;5.97;;
13208;SDS011;6669;42.678;23.332;2023-06-22T07:20:08;7.68;;;6.20;;
13208;SDS011;6669;42.678;23.332;2023-06-22T07:22:41;6.90;;;6.18;;
13208;SDS011;6669;42.678;23.332;2023-06-22T07:25:11;5.65;;;5.15;;
13208;SDS011;6669;42.678;23.332;2023-06-22T07:27:44;7.50;;;5.90;;
13208;SDS011;6669;42.678;23.332;2023-06-22T07:30:14;6.65;;;5.93;;
13208;SDS011;6669;42.678;23.332;2023-06-22T07:32:42;7.68;;;6.32;;
13208;SDS011;6669;42.678;23.332;2023-06-22T07:35:10;6.72;;;5.93;;
13208;SDS011;6669;42.678;23.332;2023-06-22T07:37:40;7.10;;;5.75;;
13208;SDS011;6669;42.678;23.332;2023-06-22T07:40:08;6.15;;;5.55;;
13208;SDS011;6669;42.678;23.332;2023-06-22T07:42:37;6.93;;;6.00;;
13208;SDS011;6669;42.678;23.332;2023-06-22T07:45:06;6.75;;;6.05;;
13208;SDS011;6669;42.678;23.332;2023-06-22T07:47:35;8.23;;;6.30;;
13208;SDS011;6669;42.678;23.332;2023-06-22T07:50:03;6.18;;;5.57;;
13208;SDS011;6669;42.678;23.332;2023-06-22T07:52:32;6.95;;;6.07;;
13208;SDS011;6669;42.678;23.332;2023-06-22T07:55:02;6.45;;;5.40;;
13208;SDS011;6669;42.678;23.332;2023-06-22T07:57:30;6.53;;;5.93;;
13208;SDS011;6669;42.678;23.332;2023-06-22T08:00:00;7.53;;;6.65;;
13208;SDS011;6669;42.678;23.332;2023-06-22T08:02:37;7.10;;;5.65;;
13208;SDS011;6669;42.678;23.332;2023-06-22T08:05:06;6.40;;;5.80;;
13208;SDS011;6669;42.678;23.332;2023-06-22T08:07:47;8.23;;;5.55;;
13208;SDS011;6669;42.678;23.332;2023-06-22T08:10:17;6.20;;;5.60;;
13208;SDS011;6669;42.678;23.332;2023-06-22T08:12:46;6.70;;;6.10;;
13208;SDS011;6669;42.678;23.332;2023-06-22T08:15:15;6.57;;;5.93;;
13208;SDS011;6669;42.678;23.332;2023-06-22T08:17:43;7.07;;;6.38;;
13208;SDS011;6669;42.678;23.332;2023-06-22T08:20:12;6.65;;;6.05;;
13208;SDS011;6669;42.678;23.332;2023-06-22T08:22:40;7.10;;;6.10;;
13208;SDS011;6669;42.678;23.332;2023-06-22T08:25:10;6.43;;;5.82;;
13208;SDS011;6669;42.678;23.332;2023-06-22T08:27:42;7.18;;;5.97;;
13208;SDS011;6669;42.678;23.332;2023-06-22T08:30:12;6.38;;;5.15;;
13208;SDS011;6669;42.678;23.332;2023-06-22T08:32:40;6.10;;;5.50;;
13208;SDS011;6669;42.678;23.332;2023-06-22T08:35:09;6.50;;;5.40;;
13208;SDS011;6669;42.678;23.332;2023-06-22T08:37:37;5.65;;;5.15;;
13208;SDS011;6669;42.678;23.332;2023-06-22T08:40:06;6.63;;;5.40;;
13208;SDS011;6669;42.678;23.332;2023-06-22T08:42:37;6.38;;;5.15;;
13208;SDS011;6669;42.678;23.332;2023-06-22T08:45:10;5.38;;;4.88;;
13208;SDS011;6669;42.678;23.332;2023-06-22T08:47:38;5.40;;;4.90;;
13208;SDS011;6669;42.678;23.332;2023-06-22T08:50:08;5.72;;;5.13;;
13208;SDS011;6669;42.678;23.332;2023-06-22T08:52:36;5.25;;;4.75;;
13208;SDS011;6669;42.678;23.332;2023-06-22T08:55:07;5.53;;;5.03;;
13208;SDS011;6669;42.678;23.332;2023-06-22T08:57:36;7.40;;;5.65;;
13208;SDS011;6669;42.678;23.332;2023-06-22T09:00:05;6.03;;;5.15;;
13208;SDS011;6669;42.678;23.332;2023-06-22T09:02:44;6.05;;;5.47;;
13208;SDS011;6669;42.678;23.332;2023-06-22T09:05:13;5.10;;;4.70;;
13208;SDS011;6669;42.678;23.332;2023-06-22T09:07:42;5.80;;;5.18;;
13208;SDS011;6669;42.678;23.332;2023-06-22T09:10:10;6.25;;;5.47;;
13208;SDS011;6669;42.678;23.332;2023-06-22T09:12:38;5.40;;;4.90;;
13208;SDS011;6669;42.678;23.332;2023-06-22T09:15:07;5.55;;;4.97;;
13208;SDS011;6669;42.678;23.332;2023-06-22T09:17:42;6.80;;;5.03;;
13208;SDS011;6669;42.678;23.332;2023-06-22T09:20:13;5.88;;;4.80;;
13208;SDS011;6669;42.678;23.332;2023-06-22T09:22:42;4.90;;;4.50;;
13208;SDS011;6669;42.678;23.332;2023-06-22T09:25:10;6.22;;;4.95;;
13208;SDS011;6669;42.678;23.332;2023-06-22T09:27:39;4.78;;;4.28;;
13208;SDS011;6669;42.678;23.332;2023-06-22T09:30:07;4.97;;;4.57;;
13208;SDS011;6669;42.678;23.332;2023-06-22T09:32:36;4.90;;;4.20;;
13208;SDS011;6669;42.678;23.332;2023-06-22T09:35:06;4.63;;;4.22;;
13208;SDS011;6669;42.678;23.332;2023-06-22T09:37:38;5.13;;;4.72;;
13208;SDS011;6669;42.678;23.332;2023-06-22T09:40:08;5.05;;;4.65;;
13208;SDS011;6669;42.678;23.332;2023-06-22T09:42:37;5.00;;;4.50;;
13208;SDS011;6669;42.678;23.332;2023-06-22T09:45:05;5.25;;;4.80;;
13208;SDS011;6669;42.678;23.332;2023-06-22T09:47:33;5.55;;;5.05;;
13208;SDS011;6669;42.678;23.332;2023-06-22T09:50:02;5.32;;;4.82;;
13208;SDS011;6669;42.678;23.332;2023-06-22T09:52:31;7.22;;;5.50;;
13208;SDS011;6669;42.678;23.332;2023-06-22T09:55:13;5.03;;;4.63;;
13208;SDS011;6669;42.678;23.332;2023-06-22T09:57:42;5.38;;;4.88;;
13208;SDS011;6669;42.678;23.332;2023-06-22T10:00:11;5.95;;;5.03;;
13208;SDS011;6669;42.678;23.332;2023-06-22T10:02:41;5.15;;;4.65;;
13208;SDS011;6669;42.678;23.332;2023-06-22T10:05:10;5.15;;;4.65;;
13208;SDS011;6669;42.678;23.332;2023-06-22T10:07:40;6.22;;;5.18;;
13208;SDS011;6669;42.678;23.332;2023-06-22T10:10:11;5.75;;;5.25;;
13208;SDS011;6669;42.678;23.332;2023-06-22T10:12:46;6.35;;;5.68;;
13208;SDS011;6669;42.678;23.332;2023-06-22T10:15:15;5.25;;;4.75;;
13208;SDS011;6669;42.678;23.332;2023-06-22T10:17:44;5.60;;;5.10;;
13208;SDS011;6669;42.678;23.332;2023-06-22T10:20:12;5.72;;;5.13;;
13208;SDS011;6669;42.678;23.332;2023-06-22T10:22:42;5.53;;;5.03;;
13208;SDS011;6669;42.678;23.332;2023-06-22T10:25:11;5.35;;;4.85;;
13208;SDS011;6669;42.678;23.332;2023-06-22T10:27:40;5.75;;;5.20;;
13208;SDS011;6669;42.678;23.332;2023-06-22T10:30:09;5.65;;;5.15;;
13208;SDS011;6669;42.678;23.332;2023-06-22T10:32:39;5.53;;;5.03;;
13208;SDS011;6669;42.678;23.332;2023-06-22T10:35:09;6.35;;;5.00;;
13208;SDS011;6669;42.678;23.332;2023-06-22T10:37:42;5.80;;;5.30;;
13208;SDS011;6669;42.678;23.332;2023-06-22T10:40:11;5.38;;;4.90;;
13208;SDS011;6669;42.678;23.332;2023-06-22T10:42:40;5.93;;;5.32;;
13208;SDS011;6669;42.678;23.332;2023-06-22T10:45:08;6.07;;;4.88;;
13208;SDS011;6669;42.678;23.332;2023-06-22T10:47:36;5.05;;;4.60;;
13208;SDS011;6669;42.678;23.332;2023-06-22T10:50:05;5.40;;;4.90;;
13208;SDS011;6669;42.678;23.332;2023-06-22T10:52:34;6.78;;;4.93;;
13208;SDS011;6669;42.678;23.332;2023-06-22T10:55:03;6.43;;;5.43;;
13208;SDS011;6669;42.678;23.332;2023-06-22T10:57:32;5.68;;;5.13;;
13208;SDS011;6669;42.678;23.332;2023-06-22T11:00:00;5.95;;;4.70;;
13208;SDS011;6669;42.678;23.332;2023-06-22T11:02:28;5.22;;;4.72;;
13208;SDS011;6669;42.678;23.332;2023-06-22T11:04:56;4.63;;;4.22;;
13208;SDS011;6669;42.678;23.332;2023-06-22T11:07:26;4.90;;;4.45;;
13208;SDS011;6669;42.678;23.332;2023-06-22T11:09:55;4.97;;;4.57;;
13208;SDS011;6669;42.678;23.332;2023-06-22T11:12:24;4.57;;;4.18;;
13208;SDS011;6669;42.678;23.332;2023-06-22T11:14:52;4.60;;;4.20;;
13208;SDS011;6669;42.678;23.332;2023-06-22T11:17:23;4.32;;;4.00;;
13208;SDS011;6669;42.678;23.332;2023-06-22T11:19:51;4.97;;;4.47;;
13208;SDS011;6669;42.678;23.332;2023-06-22T11:22:19;4.60;;;4.18;;
13208;SDS011;6669;42.678;23.332;2023-06-22T11:24:47;3.95;;;3.65;;
13208;SDS011;6669;42.678;23.332;2023-06-22T11:27:15;4.38;;;3.97;;
13208;SDS011;6669;42.678;23.332;2023-06-22T11:29:44;5.00;;;4.60;;
13208;SDS011;6669;42.678;23.332;2023-06-22T11:32:12;4.95;;;4.45;;
13208;SDS011;6669;42.678;23.332;2023-06-22T11:34:40;4.40;;;4.00;;
13208;SDS011;6669;42.678;23.332;2023-06-22T11:37:08;5.70;;;4.32;;
13208;SDS011;6669;42.678;23.332;2023-06-22T11:39:36;5.25;;;4.72;;
13208;SDS011;6669;42.678;23.332;2023-06-22T11:42:08;5.68;;;3.70;;
13208;SDS011;6669;42.678;23.332;2023-06-22T11:44:36;5.68;;;4.25;;
13208;SDS011;6669;42.678;23.332;2023-06-22T11:47:06;5.80;;;4.45;;
13208;SDS011;6669;42.678;23.332;2023-06-22T11:49:34;4.70;;;4.30;;
13208;SDS011;6669;42.678;23.332;2023-06-22T11:52:02;4.90;;;4.32;;
13208;SDS011;6669;42.678;23.332;2023-06-22T11:54:30;4.38;;;3.97;;
13208;SDS011;6669;42.678;23.332;2023-06-22T11:56:58;4.75;;;4.35;;
13208;SDS011;6669;42.678;23.332;2023-06-22T11:59:26;4.93;;;4.50;;
13208;SDS011;6669;42.678;23.332;2023-06-22T12:01:55;4.50;;;4.10;;
13208;SDS011;6669;42.678;23.332;2023-06-22T12:04:25;4.88;;;4.47;;
13208;SDS011;6669;42.678;23.332;2023-06-22T12:06:54;4.60;;;4.20;;
13208;SDS011;6669;42.678;23.332;2023-06-22T12:09:22;4.63;;;4.22;;
13208;SDS011;6669;42.678;23.332;2023-06-22T12:11:49;4.60;;;4.20;;
13208;SDS011;6669;42.678;23.332;2023-06-22T12:14:18;5.78;;;4.30;;
13208;SDS011;6669;42.678;23.332;2023-06-22T12:16:46;5.05;;;4.55;;
13208;SDS011;6669;42.678;23.332;2023-06-22T12:19:14;4.85;;;4.45;;
13208;SDS011;6669;42.678;23.332;2023-06-22T12:21:43;5.05;;;4.55;;
13208;SDS011;6669;42.678;23.332;2023-06-22T12:24:12;5.43;;;4.70;;
13208;SDS011;6669;42.678;23.332;2023-06-22T12:26:40;5.75;;;5.15;;
13208;SDS011;6669;42.678;23.332;2023-06-22T12:29:09;5.13;;;4.63;;
13208;SDS011;6669;42.678;23.332;2023-06-22T12:31:37;5.57;;;5.07;;
13208;SDS011;6669;42.678;23.332;2023-06-22T12:34:06;5.55;;;4.95;;
13208;SDS011;6669;42.678;23.332;2023-06-22T12:36:34;5.32;;;4.82;;
13208;SDS011;6669;42.678;23.332;2023-06-22T12:39:03;6.88;;;5.30;;
13208;SDS011;6669;42.678;23.332;2023-06-22T12:41:31;5.63;;;4.95;;
13208;SDS011;6669;42.678;23.332;2023-06-22T12:44:00;5.18;;;4.45;;
13208;SDS011;6669;42.678;23.332;2023-06-22T12:46:27;4.65;;;4.18;;
13208;SDS011;6669;42.678;23.332;2023-06-22T12:48:56;4.72;;;4.20;;
13208;SDS011;6669;42.678;23.332;2023-06-22T12:51:24;5.07;;;4.57;;
13208;SDS011;6669;42.678;23.332;2023-06-22T12:53:57;5.18;;;4.32;;
13208;SDS011;6669;42.678;23.332;2023-06-22T12:56:26;5.78;;;4.85;;
13208;SDS011;6669;42.678;23.332;2023-06-22T12:58:54;5.95;;;4.38;;
13208;SDS011;6669;42.678;23.332;2023-06-22T13:01:23;5.63;;;4.95;;
13208;SDS011;6669;42.678;23.332;2023-06-22T13:03:51;5.68;;;5.00;;
13208;SDS011;6669;42.678;23.332;2023-06-22T13:06:20;7.72;;;5.00;;
13208;SDS011;6669;42.678;23.332;2023-06-22T13:08:48;7.22;;;5.75;;
13208;SDS011;6669;42.678;23.332;2023-06-22T13:11:18;7.30;;;6.25;;
13208;SDS011;6669;42.678;23.332;2023-06-22T13:13:48;7.22;;;5.68;;
13208;SDS011;6669;42.678;23.332;2023-06-22T13:16:16;7.40;;;5.78;;
13208;SDS011;6669;42.678;23.332;2023-06-22T13:18:44;6.45;;;5.60;;
13208;SDS011;6669;42.678;23.332;2023-06-22T13:21:12;7.15;;;5.63;;
13208;SDS011;6669;42.678;23.332;2023-06-22T13:23:41;8.40;;;5.55;;
13208;SDS011;6669;42.678;23.332;2023-06-22T13:26:09;8.40;;;6.43;;
13208;SDS011;6669;42.678;23.332;2023-06-22T13:28:36;6.50;;;5.60;;
13208;SDS011;6669;42.678;23.332;2023-06-22T13:31:06;6.00;;;5.40;;
13208;SDS011;6669;42.678;23.332;2023-06-22T13:33:34;8.38;;;5.30;;
13208;SDS011;6669;42.678;23.332;2023-06-22T13:36:03;6.65;;;5.95;;
13208;SDS011;6669;42.678;23.332;2023-06-22T13:38:32;5.95;;;5.05;;
13208;SDS011;6669;42.678;23.332;2023-06-22T13:41:00;6.60;;;5.38;;
13208;SDS011;6669;42.678;23.332;2023-06-22T13:43:28;6.00;;;5.22;;
13208;SDS011;6669;42.678;23.332;2023-06-22T13:45:56;5.90;;;5.28;;
13208;SDS011;6669;42.678;23.332;2023-06-22T13:48:25;6.22;;;5.60;;
13208;SDS011;6669;42.678;23.332;2023-06-22T13:50:54;7.88;;;5.80;;
13208;SDS011;6669;42.678;23.332;2023-06-22T13:53:24;7.28;;;5.63;;
13208;SDS011;6669;42.678;23.332;2023-06-22T13:55:52;6.15;;;5.55;;
13208;SDS011;6669;42.678;23.332;2023-06-22T13:58:20;6.95;;;6.07;;
13208;SDS011;6669;42.678;23.332;2023-06-22T14:00:48;7.07;;;5.95;;
13208;SDS011;6669;42.678;23.332;2023-06-22T14:03:16;7.88;;;6.05;;
13208;SDS011;6669;42.678;23.332;2023-06-22T14:05:46;6.15;;;5.55;;
13208;SDS011;6669;42.678;23.332;2023-06-22T14:08:14;6.78;;;5.93;;
13208;SDS011;6669;42.678;23.332;2023-06-22T14:11:02;7.07;;;6.38;;
13208;SDS011;6669;42.678;23.332;2023-06-22T14:13:30;7.25;;;6.40;;
13208;SDS011;6669;42.678;23.332;2023-06-22T14:15:58;9.23;;;6.50;;
13208;SDS011;6669;42.678;23.332;2023-06-22T14:18:26;7.78;;;6.00;;
13208;SDS011;6669;42.678;23.332;2023-06-22T14:20:55;10.20;;;9.20;;
13208;SDS011;6669;42.678;23.332;2023-06-22T14:23:24;10.05;;;7.30;;
13208;SDS011;6669;42.678;23.332;2023-06-22T14:25:52;9.18;;;6.75;;
13208;SDS011;6669;42.678;23.332;2023-06-22T14:28:20;6.90;;;6.20;;
13208;SDS011;6669;42.678;23.332;2023-06-22T14:30:48;10.32;;;7.22;;
13208;SDS011;6669;42.678;23.332;2023-06-22T14:33:16;6.75;;;6.15;;
13208;SDS011;6669;42.678;23.332;2023-06-22T14:35:44;9.25;;;6.30;;
13208;SDS011;6669;42.678;23.332;2023-06-22T14:38:13;7.28;;;6.18;;
13208;SDS011;6669;42.678;23.332;2023-06-22T14:40:41;6.72;;;5.97;;
13208;SDS011;6669;42.678;23.332;2023-06-22T14:43:29;6.75;;;6.15;;
13208;SDS011;6669;42.678;23.332;2023-06-22T14:45:57;7.13;;;6.43;;
13208;SDS011;6669;42.678;23.332;2023-06-22T14:48:25;7.85;;;6.50;;
13208;SDS011;6669;42.678;23.332;2023-06-22T14:50:55;6.13;;;5.47;;
13208;SDS011;6669;42.678;23.332;2023-06-22T14:53:24;6.28;;;5.68;;
13208;SDS011;6669;42.678;23.332;2023-06-22T14:55:52;6.30;;;5.63;;
13208;SDS011;6669;42.678;23.332;2023-06-22T14:58:21;6.57;;;5.80;;
13208;SDS011;6669;42.678;23.332;2023-06-22T15:00:49;6.65;;;5.85;;